Hlavní strana
METAR-TAF:

METAR-TAF

Letiště :

Džíbútí, Džibutsko

zeměpisná šířka: 11-33N, zeměpisná délka: 043-10E, výška: 49 m

Aktuální stav počasí

Zpráva byla vytvořena před 4 hodinami a 38 minutami, v 20:00 UTC
Jižní vítr 5 kt
Teplota 27°C
Vlhkost vzduchu 79%
Tlak 1013 hPa
Viditelnost 10 km a více
Žádná oblačnost pod 1500 m, nevyskytují se cumulonimby.

METAR: HDAM 122000Z 17005KT CAVOK 27/23 Q1013

Čas: 03:38 (00:38 UTC)

Předpověď počasí

Zpráva byla vytvořena před 1 hodinou a 38 minutami, v 23:00 UTC
Předpověď platná od 13 v 00 UTC do 13 v 24 UTC
Severní vítr kt
Viditelnost 10 km a více
Polojasno ve výšce 2000 ft
slabé dešťové přeháňky
Změna
od 13 v 06 UTC do 13 v 12 UTC
Východní vítr 10 kt
Polojasno ve výšce 2300 ft
Změna
od 13 v 15 UTC do 13 v 18 UTC
vítr z různých směrů 5 kt
Skoro jasno ve výšce 2000 ft

TAF: HDAM 122300Z 1300/1324 00000KT 9999 -SHRA SCT020 BECMG 1306/1312 08010KT SCT023 BECMG 1315/1318 VRB05KT FEW020

Stav a předpovědi počasí z více než 4 000 letišť (zprávy METAR a TAF).

Červené a žluté tečky na mapě představují dostupné meteorologické stanice.

Když kurzor umístíte na tečku, zobrazí se název stanice.

Pak kliknutím zobrazíte stav a předpověď počasí.

Chcete-li změnit mapu, kliknutím na zelené tlačítko se znaménkem +mapu přiblížíte, kliknutím na zelené tlačítko se znaménkem – mapu oddálíte a kliknutím na zelené šipky přejdete na sousední mapy.


METAR-TAF: